Emad El Hadary

Recruteur en chef - Ittihad
13 Janv 2028
Jeudi
Processus

Personnalité

Adaptabilité (18) Ambition (18) Controverse (8) Loyauté (16) Pression (18) Professionnalisme (16) Sportivité (12) Tempérament (14)

Profil

Style d'entraînement Démocratique
Diplôme National A
Détermination 7
Gestion des joueurs 10
Motivation 8
Discipline 10
Satisfaction professionnelle
100%
Fatigue
0%
Rôle Recruteur en chef
Salaire 26.2K p/s
Contrat 14.03.2028

Performance

Comportement Bon
Efficacité de l'entraînement
35%
Développement des joueurs
55%
Prévention des blessures
40%
Mise en place tactique
30%

Événements récents

Négociation de contrat entamée maintenant
A participé à une réunion de recrutement maintenant
A recommandé une cible de transfert maintenant
A participé à une réunion de recrutement maintenant
A participé à une réunion de recrutement maintenant
Négociation de contrat entamée 7j
Négociation de contrat entamée 7j
Négociation de contrat entamée 7j

Suivi en cours

169
Joueur Club Statut Capacité Confiance Observé Dernière observation Dernier vote
Khaled Tawhid Sioni Actif 83 / 105 40% 6 02.01.2028 -
Agustín Mieres Atlanta Actif 89 / 102 40% 2 02.01.2028 -
Luis Ingolotti Atlético Tucumán Actif 122 / 120 40% 5 02.01.2028 -
Saeid Sadeghi Foolad Négociation 109 / 109 66% 1 01.01.2028 -
Saeid Taremi Foolad Négociation 96 / 97 90% 1 01.01.2028 -
Karim Karimi Siah Jamegan Négociation 109 / 113 67% 1 01.01.2028 -
Ifeanyi Emmanuel Niger Tornadoes Actif 114 / 113 40% 2 31.12.2027 -
Emmanuel Gómez Riga Alvarado Actif 114 / 135 40% 3 31.12.2027 -
Franco Rivasseau Patronato Actif 112 / 107 40% 3 31.12.2027 -
Elias Hadaya Sandefjord Actif 113 / 126 40% 2 30.12.2027 -
Divine Chidera Rangers International Actif 109 / 94 40% 2 30.12.2027 -
Esteban Glellel Quilmes Actif 126 / 114 40% 3 30.12.2027 -
Chisom Chiaha Barau Actif 83 / 87 40% 10 29.12.2027 -
Bento Al-Nassr Actif 144 / 154 40% 2 29.12.2027 -
Joaquín Bigo Tristán Suárez Actif 105 / 104 40% 4 27.12.2027 -
Pedro González Cerro Largo Actif 128 / 105 40% 1 27.12.2027 -
Facundo Vila Estudiantes Actif 105 / 104 40% 3 26.12.2027 -
Francisco Salerno Defensores Unidos Actif 112 / 127 40% 4 26.12.2027 -
Brian Opondo Kakamega Homeboyz Actif 91 / 102 40% 2 26.12.2027 -
Abuchi Okeke Kano Pillars Actif 106 / 90 40% 5 25.12.2027 -
Joe Whitworth Stockport County Actif 114 / 114 40% 1 24.12.2027 -
Mauro Casoli Talleres Actif 111 / 114 40% 2 23.12.2027 -
Nahuel Galardi Maipú Actif 127 / 117 40% 4 23.12.2027 -
Bruno Antúnez Boston River Actif 114 / 108 40% 4 23.12.2027 -
Kevin Ouru Mathare United Actif 74 / 95 40% 4 22.12.2027 -
Alexandr Maximenko Rubin Actif 131 / 133 40% 2 21.12.2027 -
Franco Carretero Deportivo Lara Actif 103 / 103 40% 1 21.12.2027 -
Kelvin Ogunga Enyimba Actif 105 / 100 40% 1 20.12.2027 -
Gastón Fernández Chacarita Juniors Actif 105 / 87 40% 3 19.12.2027 -
Ali Ishaku Abia Warriors Actif 104 / 88 40% 4 19.12.2027 -
Akpan Nsikak-Abong Kun Khalifat Actif 82 / 98 40% 3 18.12.2027 -
Michael Atata Ikorodu City Actif 89 / 96 40% 1 18.12.2027 -
George Wickens Lincoln City Actif 136 / 110 40% 1 15.12.2027 -
John Amah Plateau United Actif 98 / 93 40% 1 15.12.2027 -
Ikenna Benjamin Bayelsa United Actif 81 / 75 40% 4 13.12.2027 -
Agustín Buffa Wanderers Actif 91 / 112 40% 2 13.12.2027 -
Pontus Dahlberg Lillestrom Actif 116 / 121 40% 3 10.12.2027 -
Francisco Castillo Llaneros Actif 106 / 110 40% 2 09.12.2027 -
Biola Sabitu Remo Stars Actif 109 / 92 40% 1 08.12.2027 -
Ivor Pandur Bolton Wanderers Actif 123 / 145 40% 1 04.12.2027 -
Moisés Gallo Zulia Actif 113 / 113 40% 2 03.12.2027 -
Chizoba Okoh Wikki Tourists Actif 102 / 106 40% 3 02.12.2027 -
Rafael Sánchez Aragua Actif 85 / 82 40% 1 02.12.2027 -
Ľubomír Belko Viking Actif 133 / 139 40% 1 02.12.2027 -
Lautaro Petruchi Gimnasia y Esgrima Actif 105 / 107 40% 4 01.12.2027 -
Diego Romero Universitario Actif 121 / 127 40% 2 28.11.2027 -
Enzo Vázquez Central Norte Actif 105 / 103 40% 4 25.11.2027 -
Renzo Bacchia Racing Actif 128 / 130 40% 2 25.11.2027 -
Nicolás Sumavil Platense Actif 120 / 123 40% 1 24.11.2027 -
Mustapha Lawal Shooting Stars Actif 112 / 106 40% 2 21.11.2027 -
Karim Fouad Aswan Actif 122 / 122 42% 1 / 1m 17.11.2027 -
Francisco Coirolo Oriental Actif 108 / 91 40% 1 17.11.2027 -
Leopold Wahlstedt Rosenborg Actif 135 / 132 40% 3 16.11.2027 -
Nurudeen Badmos Kwara United Actif 104 / 83 40% 1 16.11.2027 -
Sebastián Jaume Albion Actif 99 / 122 40% 1 01.11.2027 -
Mostafa Marwan Masr El Makasa Actif 115 / 101 40% 2 19.07.2027 -
Job Ochieng Real Sociedad Actif 112 / 119 40% 1 19.07.2027 -
Robert Mizo Ashanti Gold Actif 109 / 115 40% 1 19.07.2027 Plus d'infos
Mduduzi Shabalala Kaizer Chiefs Actif 122 / 121 40% 4 12.07.2027 Observer
Sonny Carey Charlton Athletic Actif 123 / 120 40% 1 12.07.2027 -
Cian Ashford Cardiff City Actif 121 / 126 40% 1 12.07.2027 -
Jay Matete Milton Keynes Dons Actif 104 / 116 40% 1 21.06.2027 -
Darlin Yongwa Norwich City Actif 129 / 125 40% 1 21.06.2027 -
Josh Benson Rotherham United Actif 108 / 95 40% 1 21.06.2027 -
Goga Kobiashvili Veres Négociation 92 / 92 66% 1 01.06.2027 -
Shota Shekiladze Akhmat Grozny Négociation 110 / 110 66% 1 01.06.2027 -
Mandla Erasmus SuperSport United Actif 115 / 134 40% 5 31.05.2027 -
Eli King Gillingham Actif 116 / 121 40% 1 31.05.2027 -
Lewis Freestone Stevenage Actif 106 / 117 40% 1 31.05.2027 -
Tshepang Moremi Orlando Pirates Actif 106 / 119 40% 6 29.05.2027 -
Milson Al Jazira Actif 133 / 140 40% 3 29.05.2027 -
Ryan Glover Barnet Actif 99 / 97 40% 1 29.05.2027 -
Matheus Gonçalves Al-Ahli Actif 124 / 136 40% 3 27.05.2027 -
Joseph Hungbo Wigan Athletic Actif 110 / 121 40% 3 27.05.2027 -
Bernat Guiu Virtus Entella Actif 115 / 114 40% 2 26.05.2027 -
Jayden Nelson Bolton Wanderers Actif 119 / 118 40% 1 26.05.2027 -
Paddy Lane Reading Actif 120 / 93 40% 1 26.05.2027 -
Mohau Nkota Al-Ettifaq Actif 122 / 124 40% 2 25.05.2027 -
Xavier Amaechi Plymouth Argyle Actif 107 / 94 40% 1 25.05.2027 -
James Morris Leyton Orient Actif 115 / 126 40% 1 25.05.2027 -
Mohamed Simakan Al-Nassr Actif 135 / 138 40% 1 25.05.2027 -
Justin Devenny Stoke City Actif 131 / 133 40% 1 25.05.2027 -
Serginho Al Wasl Actif 139 / 129 40% 4 22.05.2027 -
Pelle Mattsson Norwich City Actif 116 / 135 40% 1 22.05.2027 -
Adam Gnezda Čerin Al Wahda Actif 122 / 130 40% 3 21.05.2027 -
Mohamed Zoungrana MC Alger Actif 112 / 121 40% 3 21.05.2027 -
Zak Swanson Bradford City Actif 126 / 129 40% 3 21.05.2027 -
Dhari Al-Anazi Al-Shabab Actif 107 / 106 40% 1 21.05.2027 -
Jacques Ekomié Wrexham Actif 126 / 128 40% 3 19.05.2027 -
Rio Adébísí Peterborough United Actif 90 / 82 40% 1 19.05.2027 -
Udoka Godwin-Malife Burton Albion Actif 113 / 116 40% 1 19.05.2027 -
Jack Diamond Stockport County Actif 112 / 127 40% 4 17.05.2027 -
Jason Knight Bristol City Actif 118 / 128 40% 1 17.05.2027 -
Sam Bell Bristol City Actif 115 / 115 40% 1 17.05.2027 -
Ethan Williams Peterborough United Actif 108 / 111 40% 2 14.05.2027 -
David Turnbull Cardiff City Actif 119 / 107 40% 3 14.05.2027 -
Sam Mather Bromley Actif 99 / 92 40% 2 14.05.2027 -
Kwame Poku Queens Park Rangers Actif 113 / 139 40% 2 13.05.2027 -
Parfait Guiagon Al-Taawoun Actif 126 / 138 40% 4 12.05.2027 -
Luan Pereira Sharjah Actif 117 / 125 40% 2 12.05.2027 -
Jack Moylan Lincoln City Actif 105 / 124 40% 1 11.05.2027 -
Eom Ji-Sung Swansea City Actif 114 / 102 40% 1 11.05.2027 -
Harry Leonard Peterborough United Actif 112 / 116 40% 2 10.05.2027 -
Lewis Bate Stockport County Actif 113 / 105 40% 1 09.05.2027 -
Michele Ambrosini AlbinoLeffe Actif 114 / 108 40% 1 09.05.2027 -
Akin Odimayo Crawley Town Actif 103 / 88 40% 1 09.05.2027 -
Matthew Sorinola Newport County Actif 101 / 95 40% 1 09.05.2027 -
Kyle John Port Vale Actif 118 / 116 40% 1 09.05.2027 -
Ollie Tanner Cardiff City Actif 109 / 112 40% 4 07.05.2027 -
Jack Currie Oxford United Actif 117 / 136 40% 2 07.05.2027 -
Aboubacar Doumbia Al-Orobah Actif 103 / 91 40% 1 07.05.2027 -
Ilario Monterisi Frosinone Actif 132 / 127 40% 2 04.05.2027 -
Charlie Webster Burton Albion Actif 118 / 99 40% 1 04.05.2027 -
Mathias Jørgensen Blackburn Rovers Actif 108 / 128 40% 2 03.05.2027 -
Josh Edwards Charlton Athletic Actif 111 / 125 40% 1 03.05.2027 -
Mohammad Alsalkhadi Damac Actif 100 / 116 40% 4 02.05.2027 -
Tyreece Campbell Charlton Athletic Actif 113 / 113 40% 2 30.04.2027 -
Jadsom Al Wahda Actif 128 / 125 40% 1 30.04.2027 -
Williams Manyama SuperSport United Actif 120 / 130 40% 2 27.04.2027 -
Ahmed Al-Nakhli Al-Hazem Actif 104 / 112 40% 3 25.04.2027 -
Oswin Appollis Orlando Pirates Actif 114 / 117 40% 3 25.04.2027 -
Andrea Carboni Monza Actif 123 / 130 40% 1 25.04.2027 -
Joel Bagan Cardiff City Actif 119 / 102 40% 1 25.04.2027 -
Brian De Keersmaecker Oxford United Actif 131 / 138 40% 1 23.04.2027 -
Zeidane Inoussa Swansea City Actif 115 / 134 40% 1 23.04.2027 -
David Petrović Al Nasr Actif 108 / 130 40% 2 22.04.2027 -
Adel Bouzida Paradou Actif 104 / 103 40% 1 22.04.2027 -
Armando Dobra Chesterfield Actif 98 / 112 40% 1 22.04.2027 -
Christos Mouzakitis Hull City Actif 140 / 130 40% 1 22.04.2027 -
Jay McGrath Doncaster Rovers Actif 96 / 110 40% 1 20.04.2027 -
Louie Barry Sheffield Wednesday Actif 114 / 123 40% 1 19.04.2027 -
Facundo Kruspzky Al Wahda Actif 118 / 113 40% 2 17.04.2027 -
Daniel Kyerewaa Reading Actif 108 / 107 40% 3 16.04.2027 -
Brahima Diarra Al Wahda Actif 108 / 122 40% 1 16.04.2027 -
Richard Koné Queens Park Rangers Actif 113 / 132 40% 1 15.04.2027 -
Armando Shashoua Gillingham Actif 103 / 93 40% 1 14.04.2027 -
Ibrahim Bayesh Al Dhafra Actif 114 / 107 40% 2 11.04.2027 -
Bonheur Mugisha Al-Hazem Actif 101 / 109 40% 2 10.04.2027 -
Ethan Bristow Tranmere Rovers Actif 99 / 96 40% 1 10.04.2027 -
Michael Baidoo Plymouth Argyle Actif 127 / 132 40% 1 10.04.2027 -
Derrick Fordjour Medeama Actif 101 / 83 40% 1 10.04.2027 -
Haitham Asiri Al-Qadisiyah Actif 120 / 99 40% 1 10.04.2027 -
Filippo Ranocchia Palermo Actif 127 / 145 40% 1 09.04.2027 -
Nathan Moriah-Welsh Mansfield Town Actif 119 / 99 40% 1 08.04.2027 -
Mohammed Al-Dossary Al-Ra'ed Actif 101 / 115 40% 1 08.04.2027 -
Alex Robertson Cardiff City Actif 116 / 137 40% 1 05.04.2027 -
Christopher Bonsu Baah Al-Qadisiyah Actif 119 / 132 40% 1 05.04.2027 -
Pedro Malheiro Al Wasl Actif 139 / 129 40% 1 04.04.2027 -
Hakim Sulemana Medeama Actif 95 / 89 40% 1 01.04.2027 -
Siyanda Ndlovu Bloemfontein Celtic Actif 128 / 133 40% 1 31.03.2027 -
Imad Riahi Arab Contractors Actif 119 / 112 40% 1 31.03.2027 -
Derensili Sanches Fernandes Huddersfield Town Actif 123 / 130 40% 1 29.03.2027 -
Sulaiman Hazazi Al-Riyadh Actif 112 / 112 40% 1 29.03.2027 -
Mahmoud Khalfan Al Shabab Actif 134 / 115 40% 1 28.03.2027 -
Dion Lopy Al-Ittihad Actif 132 / 137 40% 1 27.03.2027 -
Ali Saleh Sharjah Actif 112 / 103 40% 1 25.03.2027 -
Abdulmalik Al-Jaber Al-Nassr Actif 100 / 119 40% 1 25.03.2027 -
Aiman Yahya Al-Nassr Actif 117 / 128 40% 1 24.03.2027 -
Josh Tymon Swansea City Actif 129 / 107 40% 1 24.03.2027 -
Walid Omar Al Shaab Actif 104 / 107 40% 1 17.03.2027 -
Mohammed Abu Al-Shamat Al-Qadisiyah Actif 132 / 139 40% 1 13.03.2027 -
Mihai Lixandru Al-Fateh Actif 129 / 108 40% 1 11.03.2027 -
Phoenix Patterson Stevenage Actif 121 / 118 40% 1 10.03.2027 -
Brahian Palacios Al Wasl Actif 128 / 127 40% 2 09.03.2027 -
Moussa N'Diaye Al Nasr Actif 113 / 134 40% 1 07.03.2027 -
Saeed Baattia Al-Fateh Actif 106 / 115 40% 1 01.03.2027 -
Leandrinho Sharjah Actif 103 / 107 40% 1 01.03.2027 -
Amr Hossam Wadi Degla Actif 83 / 78 62% 1 10.08.2026 Approuver
Youssef En-Nesyri Al-Ittihad Actif 124 / 124 40% 1 01.08.2026 -